Forside
METAR-TAF:

METAR-TAF

Lufthavne :

Mount Vernon Airport

Mount Vernon, Illinois, USA

Breddekreds: 38-19N, længdekreds: 088-52W, højde: 146 m

Aktuelle vejr

Denne rapport blev lavet for 12 minutter siden, kl. 11:56 UTC
Vind 7 kt fra sydøst
Temperatur -3°C
Fugtighed 63%
Tryk 1023 hPa
Sigt: 16.1 km
Overskyet i en højde af 4400 ft

METAR: KMVN 221156Z AUTO 13007KT 10SM OVC044 M03/M09 A3022 RMK AO2 SLP241 T10331089 11033 21061 56014 FZRANO

Tid: 06:08 (12:08 UTC)


TAF: fraværende

Vejrobservationer og prognoser fra mere end 4000 lufthavne (METAR og TAF).

De gule og røde prikker repræsenterer de meteorologiske stationer.

Flyt musen over at se navnet på stationen.

Så klik over at se vejr observationer og prognoser.

At skifte det kort: Klik på de grønne knapper med et sort kors for at zoome ind; på den grønne knap med en bindestreg for at zoome ud; eller på de grønne pile for tilstødende kort.


METAR-TAF: